Time;durP1;ratioP1;P1;durP2;ratioP2;P2;SDS_P1;SDS_P2;PMS_P1;PMS_P2;Temp;Humidity;BMP_temperature;BMP_pressure;BME280_temperature;BME280_humidity;BME280_pressure;Samples;Min_cycle;Max_cycle;Signal;HPM_P1;HPM_P2
2023/06/15 00:02:23;;;;;;;;;;;18.70;99.90;;;;;;4997019;28;19936;-67
2023/06/15 00:04:51;;;;;;;;;;;18.70;99.90;;;;;;5013034;28;20372;-67
2023/06/15 00:07:17;;;;;;;;;;;18.50;99.90;;;;;;5009806;28;19926;-67
2023/06/15 00:09:44;;;;;;;;;;;18.60;99.90;;;;;;4989399;28;19925;-67
2023/06/15 00:12:11;;;;;;;;;;;18.50;99.90;;;;;;4990460;28;20451;-67
2023/06/15 00:14:39;;;;;;;;;;;18.40;99.90;;;;;;5009081;28;20343;-67
2023/06/15 00:17:08;;;;;;;;;;;18.20;99.90;;;;;;5010815;28;19926;-67
2023/06/15 00:19:34;;;;;;;;;;;18.20;99.90;;;;;;5008516;28;19929;-67
2023/06/15 00:22:01;;;;;;;;;;;18.00;99.90;;;;;;5008942;28;20381;-67
2023/06/15 00:24:28;;;;;;;;;;;17.90;99.90;;;;;;5011707;28;19925;-67
2023/06/15 00:26:55;;;;;;;;;;;17.80;99.90;;;;;;5008952;28;19926;-68
2023/06/15 00:29:21;;;;;;;;;;;17.70;99.90;;;;;;5003779;28;19925;-67
2023/06/15 00:31:50;;;;;;;;;;;17.60;99.90;;;;;;4993103;28;19930;-67
2023/06/15 00:34:17;;;;;;;;;;;17.60;99.90;;;;;;5001071;28;19926;-67
2023/06/15 00:36:43;;;;;;;;;;;17.50;99.90;;;;;;5007706;28;19929;-66
2023/06/15 00:39:10;;;;;;;;;;;17.40;99.90;;;;;;5012895;28;20336;-67
2023/06/15 00:41:40;;;;;;;;;;;17.40;99.90;;;;;;5004568;28;19925;-67
2023/06/15 00:44:07;;;;;;;;;;;17.30;99.90;;;;;;4992228;28;19929;-67
2023/06/15 00:46:34;;;;;;;;;;;17.30;99.90;;;;;;5007823;28;19926;-67
2023/06/15 00:49:03;;;;;;;;;;;17.40;99.90;;;;;;5012550;28;19926;-67
2023/06/15 00:51:30;;;;;;;;;;;17.40;99.90;;;;;;5010526;28;19933;-67
2023/06/15 00:53:58;;;;;;;;;;;17.40;99.90;;;;;;5016349;28;19930;-68
2023/06/15 00:56:29;;;;;;;;;;;17.30;99.90;;;;;;4993297;28;19926;-66
2023/06/15 00:58:56;;;;;;;;;;;17.20;99.90;;;;;;5010483;28;20029;-67
2023/06/15 01:01:24;;;;;;;;;;;17.20;99.90;;;;;;5008461;28;19925;-67
2023/06/15 01:03:51;;;;;;;;;;;17.20;99.90;;;;;;5006277;28;19926;-68
2023/06/15 01:06:20;;;;;;;;;;;17.10;99.90;;;;;;4987221;28;19987;-67
2023/06/15 01:08:52;;;;;;;;;;;17.10;99.90;;;;;;4988414;28;19925;-66
2023/06/15 01:11:19;;;;;;;;;;;17.10;99.90;;;;;;5002876;28;20409;-67
2023/06/15 01:13:46;;;;;;;;;;;17.10;99.90;;;;;;5004546;28;19925;-67
2023/06/15 01:16:15;;;;;;;;;;;17.10;99.90;;;;;;5003693;28;19929;-68
2023/06/15 01:18:47;;;;;;;;;;;17.10;99.90;;;;;;4989659;28;19933;-67
2023/06/15 01:21:14;;;;;;;;;;;17.10;99.90;;;;;;5008124;28;19929;-67
2023/06/15 01:23:51;;;;;;;;;;;17.10;99.90;;;;;;4983728;28;19930;-67
2023/06/15 01:26:20;;;;;;;;;;;17.10;99.90;;;;;;4994174;28;19968;-68
2023/06/15 01:28:49;;;;;;;;;;;17.10;99.90;;;;;;5002783;28;19926;-67
2023/06/15 01:31:16;;;;;;;;;;;17.00;99.90;;;;;;4987973;28;19926;-66
2023/06/15 01:33:47;;;;;;;;;;;16.90;99.90;;;;;;5001012;28;19926;-67
2023/06/15 01:36:14;;;;;;;;;;;16.80;99.90;;;;;;4988500;28;19929;-67
2023/06/15 01:38:45;;;;;;;;;;;16.70;99.90;;;;;;4983502;28;19930;-67
2023/06/15 01:41:12;;;;;;;;;;;16.60;99.90;;;;;;4991403;28;19925;-67
2023/06/15 01:43:41;;;;;;;;;;;16.50;99.90;;;;;;4986713;28;19925;-67
2023/06/15 01:46:09;;;;;;;;;;;16.50;99.90;;;;;;4985227;28;19926;-67
2023/06/15 01:48:37;;;;;;;;;;;16.50;99.90;;;;;;5009422;28;19933;-67
2023/06/15 01:51:05;;;;;;;;;;;16.40;99.90;;;;;;5000051;28;19936;-67
2023/06/15 01:53:31;;;;;;;;;;;16.40;99.90;;;;;;4984127;28;19925;-67
2023/06/15 01:55:59;;;;;;;;;;;16.40;99.90;;;;;;5005424;28;19929;-67
2023/06/15 01:58:25;;;;;;;;;;;16.30;99.90;;;;;;4985283;28;19926;-67
2023/06/15 02:00:54;;;;;;;;;;;16.30;99.90;;;;;;5003251;28;19926;-67
2023/06/15 02:03:21;;;;;;;;;;;16.30;99.90;;;;;;5003708;28;20016;-66
2023/06/15 02:05:47;;;;;;;;;;;16.20;99.90;;;;;;5000522;28;19952;-68
2023/06/15 02:08:15;;;;;;;;;;;16.20;99.90;;;;;;4990838;28;19968;-67
2023/06/15 02:10:42;;;;;;;;;;;16.10;99.90;;;;;;5007011;28;20275;-68
2023/06/15 02:13:11;;;;;;;;;;;16.10;99.90;;;;;;5002401;28;19932;-67
2023/06/15 02:15:38;;;;;;;;;;;16.00;99.90;;;;;;4998664;28;19967;-67
2023/06/15 02:18:12;;;;;;;;;;;16.00;99.90;;;;;;5006384;28;19926;-67
2023/06/15 02:20:39;;;;;;;;;;;16.00;99.90;;;;;;4992810;28;19925;-66
2023/06/15 02:23:06;;;;;;;;;;;15.90;99.90;;;;;;5009563;28;19941;-67
2023/06/15 02:25:33;;;;;;;;;;;15.90;99.90;;;;;;4994942;28;19972;-67
2023/06/15 02:28:02;;;;;;;;;;;15.80;99.90;;;;;;4988243;28;19933;-67
2023/06/15 02:30:29;;;;;;;;;;;15.70;99.90;;;;;;5009172;28;19961;-67
2023/06/15 02:33:13;;;;;;;;;;;15.70;99.90;;;;;;5092766;27;19919;-66
2023/06/15 02:35:39;;;;;;;;;;;15.70;99.90;;;;;;5063277;28;19925;-65
2023/06/15 02:38:06;;;;;;;;;;;15.60;99.90;;;;;;5088976;28;19997;-66
2023/06/15 02:40:32;;;;;;;;;;;15.50;99.90;;;;;;5079212;28;19932;-66
2023/06/15 02:43:00;;;;;;;;;;;15.50;99.90;;;;;;5073202;28;20337;-66
2023/06/15 02:45:26;;;;;;;;;;;15.40;99.90;;;;;;5080707;28;19940;-66
2023/06/15 02:47:53;;;;;;;;;;;15.40;99.90;;;;;;5079880;28;20359;-67
2023/06/15 02:50:21;;;;;;;;;;;15.40;99.90;;;;;;5082512;28;20009;-66
2023/06/15 02:52:57;;;;;;;;;;;15.40;99.90;;;;;;5085080;28;19925;-67
2023/06/15 02:55:23;;;;;;;;;;;15.30;99.90;;;;;;5071126;28;19978;-66
2023/06/15 02:57:51;;;;;;;;;;;15.20;99.90;;;;;;5076514;28;20407;-66
2023/06/15 03:00:40;;;;;;;;;;;15.30;99.90;;;;;;5075548;28;19969;-66
2023/06/15 03:03:22;;;;;;;;;;;15.20;99.90;;;;;;5076533;28;19925;-65
2023/06/15 03:05:52;;;;;;;;;;;15.10;99.90;;;;;;5073759;28;20380;-65
2023/06/15 03:08:20;;;;;;;;;;;15.00;99.90;;;;;;5084169;28;19925;-65
2023/06/15 03:10:58;;;;;;;;;;;14.90;99.90;;;;;;5077954;28;19925;-65
2023/06/15 03:13:25;;;;;;;;;;;14.90;99.90;;;;;;5067068;28;20384;-64
2023/06/15 03:15:53;;;;;;;;;;;14.80;99.90;;;;;;5075121;28;19931;-66
2023/06/15 03:18:20;;;;;;;;;;;14.80;99.90;;;;;;5067989;28;19925;-65
2023/06/15 03:20:52;;;;;;;;;;;14.70;99.90;;;;;;5081590;28;19964;-65
2023/06/15 03:23:20;;;;;;;;;;;14.70;99.90;;;;;;5078774;28;19931;-66
2023/06/15 03:25:49;;;;;;;;;;;14.60;99.90;;;;;;5075751;28;19924;-65
2023/06/15 03:28:16;;;;;;;;;;;14.60;99.90;;;;;;5074983;28;20334;-65
2023/06/15 03:30:46;;;;;;;;;;;14.60;99.90;;;;;;5076984;28;19928;-68
2023/06/15 03:33:16;;;;;;;;;;;14.50;99.90;;;;;;5096953;28;19955;-67
2023/06/15 03:35:43;;;;;;;;;;;14.50;99.90;;;;;;5097565;28;19924;-65
2023/06/15 03:38:10;;;;;;;;;;;14.50;99.90;;;;;;5096338;28;19925;-65
2023/06/15 03:40:39;;;;;;;;;;;14.50;99.90;;;;;;5080876;28;19925;-66
2023/06/15 03:43:06;;;;;;;;;;;14.50;99.90;;;;;;5090625;28;19960;-66
2023/06/15 03:45:34;;;;;;;;;;;14.50;99.90;;;;;;5079229;28;20448;-67
2023/06/15 03:48:01;;;;;;;;;;;14.50;99.90;;;;;;5078359;28;19928;-65
2023/06/15 03:50:28;;;;;;;;;;;14.40;99.90;;;;;;5085253;28;19970;-65
2023/06/15 03:52:55;;;;;;;;;;;14.30;99.90;;;;;;5083724;28;19924;-66
2023/06/15 03:55:22;;;;;;;;;;;14.30;99.90;;;;;;5083593;28;20379;-66
2023/06/15 03:57:50;;;;;;;;;;;14.30;99.90;;;;;;5085166;28;19924;-66
2023/06/15 04:00:18;;;;;;;;;;;14.30;99.90;;;;;;5086039;28;20365;-66
2023/06/15 04:02:47;;;;;;;;;;;14.30;99.90;;;;;;5085795;28;19924;-66
2023/06/15 04:05:14;;;;;;;;;;;14.30;99.90;;;;;;5082241;28;19934;-66
2023/06/15 04:07:41;;;;;;;;;;;14.20;99.90;;;;;;5080335;28;19932;-66
2023/06/15 04:10:10;;;;;;;;;;;14.20;99.90;;;;;;5084795;28;19978;-65
2023/06/15 04:12:37;;;;;;;;;;;14.30;99.90;;;;;;5080129;28;20310;-68
2023/06/15 04:15:06;;;;;;;;;;;14.30;99.90;;;;;;5072458;28;19935;-67
2023/06/15 04:17:35;;;;;;;;;;;14.30;99.90;;;;;;5076198;28;20011;-68
2023/06/15 04:20:03;;;;;;;;;;;14.40;99.90;;;;;;5071270;28;19924;-67
2023/06/15 04:22:31;;;;;;;;;;;14.40;99.90;;;;;;5073954;28;19924;-69
2023/06/15 04:24:58;;;;;;;;;;;14.30;99.90;;;;;;5079095;28;19936;-66
2023/06/15 04:27:27;;;;;;;;;;;14.30;99.90;;;;;;5086323;28;19982;-68
2023/06/15 04:29:54;;;;;;;;;;;14.30;99.90;;;;;;5069571;28;19932;-69
2023/06/15 04:32:25;;;;;;;;;;;14.30;99.90;;;;;;5077310;28;20294;-68
2023/06/15 04:34:54;;;;;;;;;;;14.30;99.90;;;;;;5071606;28;19924;-68
2023/06/15 04:37:23;;;;;;;;;;;14.30;99.90;;;;;;5073320;28;19986;-67
2023/06/15 04:39:50;;;;;;;;;;;14.20;99.90;;;;;;5077147;28;19931;-68
2023/06/15 04:42:18;;;;;;;;;;;14.20;99.90;;;;;;5085005;28;19924;-68
2023/06/15 04:44:46;;;;;;;;;;;14.20;99.90;;;;;;5082892;28;19925;-68
2023/06/15 04:47:13;;;;;;;;;;;14.20;99.90;;;;;;5067885;28;19932;-68
2023/06/15 04:49:42;;;;;;;;;;;14.30;99.90;;;;;;5085156;28;19924;-68
2023/06/15 04:52:09;;;;;;;;;;;14.40;99.90;;;;;;5068723;28;20403;-67
2023/06/15 04:54:39;;;;;;;;;;;14.40;99.90;;;;;;5079277;28;20027;-74
2023/06/15 04:57:08;;;;;;;;;;;14.50;99.90;;;;;;5070112;28;19925;-67
2023/06/15 04:59:38;;;;;;;;;;;14.60;99.90;;;;;;5084861;28;20269;-67
2023/06/15 05:02:07;;;;;;;;;;;14.60;99.90;;;;;;5074481;28;19928;-76
2023/06/15 05:04:36;;;;;;;;;;;14.80;99.90;;;;;;5073270;28;19924;-67
2023/06/15 05:07:05;;;;;;;;;;;14.90;99.90;;;;;;5079766;28;19928;-67
2023/06/15 05:09:36;;;;;;;;;;;15.00;99.90;;;;;;5088443;28;19983;-67
2023/06/15 05:12:08;;;;;;;;;;;15.10;99.90;;;;;;5082181;28;20418;-68
2023/06/15 05:14:35;;;;;;;;;;;15.10;99.90;;;;;;5076559;28;19928;-67
2023/06/15 05:17:03;;;;;;;;;;;15.20;99.90;;;;;;5085033;28;19932;-67
2023/06/15 05:19:30;;;;;;;;;;;15.40;99.90;;;;;;5073302;28;20446;-67
2023/06/15 05:21:58;;;;;;;;;;;15.50;99.90;;;;;;5085208;28;19924;-67
2023/06/15 05:24:26;;;;;;;;;;;15.60;99.90;;;;;;5074637;28;19928;-67
2023/06/15 05:26:53;;;;;;;;;;;15.70;99.90;;;;;;5082891;28;20000;-68
2023/06/15 05:29:20;;;;;;;;;;;15.80;99.90;;;;;;5075513;28;20392;-67
2023/06/15 05:31:47;;;;;;;;;;;15.90;99.90;;;;;;5067510;28;19931;-66
2023/06/15 05:34:16;;;;;;;;;;;16.00;99.90;;;;;;5075418;28;20288;-67
2023/06/15 05:36:43;;;;;;;;;;;16.20;99.90;;;;;;5068961;28;19924;-67
2023/06/15 05:39:10;;;;;;;;;;;16.20;99.90;;;;;;5077931;28;19924;-67
2023/06/15 05:41:38;;;;;;;;;;;16.30;99.90;;;;;;5078181;28;19931;-67
2023/06/15 05:44:05;;;;;;;;;;;16.40;99.90;;;;;;5080335;28;19928;-67
2023/06/15 05:46:32;;;;;;;;;;;16.60;99.90;;;;;;5078418;28;19938;-67
2023/06/15 05:49:00;;;;;;;;;;;16.70;99.90;;;;;;5082174;28;19950;-68
2023/06/15 05:51:28;;;;;;;;;;;16.90;99.90;;;;;;5075006;28;19967;-67
2023/06/15 05:53:54;;;;;;;;;;;17.00;99.90;;;;;;5078276;28;20415;-67
2023/06/15 05:56:22;;;;;;;;;;;17.20;99.90;;;;;;5082152;28;19925;-67
2023/06/15 05:58:50;;;;;;;;;;;17.30;99.90;;;;;;5070030;28;20440;-67
2023/06/15 06:01:17;;;;;;;;;;;17.40;99.90;;;;;;5080000;28;19924;-68
2023/06/15 06:03:43;;;;;;;;;;;17.50;99.90;;;;;;5076321;28;19924;-67
2023/06/15 06:06:12;;;;;;;;;;;17.70;99.90;;;;;;5078804;28;19931;-68
2023/06/15 06:08:39;;;;;;;;;;;17.70;99.90;;;;;;5079452;28;19932;-67
2023/06/15 06:11:07;;;;;;;;;;;17.80;99.90;;;;;;5081511;28;20035;-68
2023/06/15 06:13:39;;;;;;;;;;;17.90;99.90;;;;;;5067820;28;20337;-67
2023/06/15 06:16:07;;;;;;;;;;;17.80;99.90;;;;;;5087155;28;20290;-67
2023/06/15 06:18:34;;;;;;;;;;;18.00;99.90;;;;;;5088675;28;20307;-66
2023/06/15 06:21:01;;;;;;;;;;;18.10;99.90;;;;;;5088716;28;19928;-69
2023/06/15 06:23:28;;;;;;;;;;;18.20;99.90;;;;;;5086538;28;20410;-68
2023/06/15 06:25:56;;;;;;;;;;;18.20;99.90;;;;;;5088612;28;19924;-66
2023/06/15 06:28:23;;;;;;;;;;;18.40;99.90;;;;;;5082842;28;19971;-67
2023/06/15 06:30:50;;;;;;;;;;;18.40;99.90;;;;;;5080745;28;19924;-68
2023/06/15 06:33:18;;;;;;;;;;;18.60;99.90;;;;;;5083293;28;19928;-67
2023/06/15 06:35:45;;;;;;;;;;;18.70;99.90;;;;;;5087720;28;20328;-65
2023/06/15 06:38:12;;;;;;;;;;;18.70;99.90;;;;;;5087334;28;19924;-65
2023/06/15 06:40:39;;;;;;;;;;;18.80;99.90;;;;;;5088989;28;19928;-65
2023/06/15 06:43:06;;;;;;;;;;;18.90;99.90;;;;;;5088386;28;19928;-67
2023/06/15 06:45:33;;;;;;;;;;;19.10;99.90;;;;;;5088047;28;19932;-65
2023/06/15 06:47:59;;;;;;;;;;;19.10;99.90;;;;;;5087331;28;19924;-65
2023/06/15 06:50:28;;;;;;;;;;;19.20;99.90;;;;;;5083213;28;19933;-70
2023/06/15 06:52:55;;;;;;;;;;;19.30;99.90;;;;;;5081254;28;19924;-68
2023/06/15 06:55:21;;;;;;;;;;;19.40;99.90;;;;;;5087632;28;20391;-68
2023/06/15 06:57:48;;;;;;;;;;;19.40;99.90;;;;;;5082319;28;19928;-69
2023/06/15 07:00:16;;;;;;;;;;;19.50;99.90;;;;;;5078174;28;19924;-68
2023/06/15 07:02:42;;;;;;;;;;;19.50;99.90;;;;;;5088670;28;19932;-67
2023/06/15 07:05:09;;;;;;;;;;;19.60;99.90;;;;;;5080260;28;19924;-67
2023/06/15 07:07:38;;;;;;;;;;;19.70;99.90;;;;;;5079810;28;19955;-68
2023/06/15 07:10:06;;;;;;;;;;;19.80;99.90;;;;;;5082510;28;20011;-69
2023/06/15 07:12:33;;;;;;;;;;;20.00;99.90;;;;;;5083872;28;19935;-67
2023/06/15 07:15:00;;;;;;;;;;;20.10;99.90;;;;;;5088557;28;19931;-68
2023/06/15 07:17:27;;;;;;;;;;;20.10;99.90;;;;;;5080706;28;19925;-68
2023/06/15 07:19:53;;;;;;;;;;;20.20;99.90;;;;;;5091883;28;20345;-70
2023/06/15 07:22:21;;;;;;;;;;;20.30;99.90;;;;;;5085778;28;20345;-67
2023/06/15 07:24:49;;;;;;;;;;;20.30;99.90;;;;;;5090150;28;19924;-68
2023/06/15 07:27:16;;;;;;;;;;;20.40;99.90;;;;;;5092059;28;20000;-68
2023/06/15 07:29:42;;;;;;;;;;;20.50;99.90;;;;;;5078097;28;19928;-67
2023/06/15 07:32:09;;;;;;;;;;;20.50;99.90;;;;;;5088179;28;19928;-67
2023/06/15 07:34:36;;;;;;;;;;;20.50;99.90;;;;;;5092451;28;19981;-67
2023/06/15 07:37:03;;;;;;;;;;;20.70;99.90;;;;;;5092125;28;19942;-68
2023/06/15 07:39:30;;;;;;;;;;;20.70;99.90;;;;;;5089574;28;19939;-68
2023/06/15 07:41:58;;;;;;;;;;;20.70;99.90;;;;;;5085442;28;19928;-70
2023/06/15 07:44:25;;;;;;;;;;;20.70;99.90;;;;;;5086915;28;19944;-69
2023/06/15 07:46:52;;;;;;;;;;;20.70;99.90;;;;;;5086141;28;19952;-68
2023/06/15 07:49:19;;;;;;;;;;;20.80;99.90;;;;;;5092393;28;19924;-69
2023/06/15 07:51:46;;;;;;;;;;;20.90;99.90;;;;;;5091965;28;19924;-67
2023/06/15 07:54:12;;;;;;;;;;;21.00;99.90;;;;;;5089342;28;19971;-68
2023/06/15 07:56:39;;;;;;;;;;;21.10;99.90;;;;;;5088759;28;19932;-69
2023/06/15 07:59:07;;;;;;;;;;;21.20;99.90;;;;;;5085992;28;19945;-67
2023/06/15 08:01:34;;;;;;;;;;;21.20;99.90;;;;;;5087243;28;19928;-68
2023/06/15 08:04:01;;;;;;;;;;;21.30;99.90;;;;;;5092187;28;19928;-67
2023/06/15 08:06:28;;;;;;;;;;;21.40;99.90;;;;;;5091813;28;19927;-69
2023/06/15 08:08:55;;;;;;;;;;;21.40;99.90;;;;;;5086407;28;19924;-67
2023/06/15 08:11:22;;;;;;;;;;;21.40;99.90;;;;;;5076000;28;19981;-67
2023/06/15 08:13:48;;;;;;;;;;;21.40;99.90;;;;;;5086509;28;19925;-68
2023/06/15 08:16:17;;;;;;;;;;;21.50;99.90;;;;;;5090700;28;20345;-66
2023/06/15 08:18:43;;;;;;;;;;;21.60;99.90;;;;;;5088418;28;19924;-68
2023/06/15 08:21:12;;;;;;;;;;;21.60;99.90;;;;;;5091961;28;19928;-69
2023/06/15 08:23:39;;;;;;;;;;;21.70;99.90;;;;;;5080912;28;19924;-68
2023/06/15 08:26:06;;;;;;;;;;;21.80;99.90;;;;;;5084887;28;19924;-67
2023/06/15 08:28:32;;;;;;;;;;;22.00;99.90;;;;;;5078247;28;19940;-69
2023/06/15 08:30:59;;;;;;;;;;;22.10;99.90;;;;;;5080631;28;20283;-68
2023/06/15 08:33:27;;;;;;;;;;;22.20;99.90;;;;;;5074133;28;19924;-67
2023/06/15 08:35:54;;;;;;;;;;;22.30;99.90;;;;;;5086581;28;19924;-67
2023/06/15 08:38:21;;;;;;;;;;;22.30;99.90;;;;;;5074838;28;19925;-69
2023/06/15 08:40:48;;;;;;;;;;;22.40;99.90;;;;;;5078285;28;19924;-69
2023/06/15 08:43:15;;;;;;;;;;;22.50;99.90;;;;;;5080009;28;20307;-68
2023/06/15 08:45:43;;;;;;;;;;;22.60;99.90;;;;;;5087247;28;19931;-65
2023/06/15 08:48:11;;;;;;;;;;;22.60;99.90;;;;;;5086205;28;19927;-68
2023/06/15 08:50:40;;;;;;;;;;;22.70;99.90;;;;;;5076635;28;19924;-68
2023/06/15 08:53:07;;;;;;;;;;;22.70;99.90;;;;;;5080592;28;20030;-67
2023/06/15 08:55:35;;;;;;;;;;;22.80;99.90;;;;;;5080469;28;20031;-70
2023/06/15 08:58:02;;;;;;;;;;;23.00;99.90;;;;;;5076924;28;19928;-68
2023/06/15 09:00:28;;;;;;;;;;;23.10;99.90;;;;;;5089601;28;19932;-70
2023/06/15 09:02:57;;;;;;;;;;;23.00;99.90;;;;;;5078876;28;20311;-68
2023/06/15 09:05:24;;;;;;;;;;;23.00;99.90;;;;;;5087996;28;20395;-68
2023/06/15 09:07:52;;;;;;;;;;;23.10;99.90;;;;;;5080039;28;19964;-68
2023/06/15 09:10:19;;;;;;;;;;;23.10;99.90;;;;;;5081642;28;19970;-67
2023/06/15 09:12:46;;;;;;;;;;;23.30;99.90;;;;;;5070946;28;19964;-67
2023/06/15 09:15:17;;;;;;;;;;;23.20;99.90;;;;;;5082653;28;19931;-68
2023/06/15 09:17:44;;;;;;;;;;;23.30;99.90;;;;;;5072349;28;20015;-68
2023/06/15 09:20:12;;;;;;;;;;;23.40;99.90;;;;;;5077428;28;19925;-67
2023/06/15 09:22:42;;;;;;;;;;;23.60;99.90;;;;;;5076991;28;19924;-68
2023/06/15 09:25:17;;;;;;;;;;;23.80;99.90;;;;;;5078008;28;19924;-67
2023/06/15 09:27:53;;;;;;;;;;;23.90;99.90;;;;;;5071864;28;19931;-68
2023/06/15 09:30:20;;;;;;;;;;;23.90;99.90;;;;;;5078768;28;19924;-68
2023/06/15 09:32:46;;;;;;;;;;;23.90;99.90;;;;;;5084138;28;19925;-68
2023/06/15 09:35:13;;;;;;;;;;;23.90;99.90;;;;;;5082661;28;19924;-67
2023/06/15 09:37:40;;;;;;;;;;;24.00;99.90;;;;;;5077851;28;19924;-69
2023/06/15 09:40:08;;;;;;;;;;;24.20;99.90;;;;;;5073997;28;19928;-67
2023/06/15 09:42:37;;;;;;;;;;;24.30;99.90;;;;;;5072974;28;19928;-68
2023/06/15 09:45:05;;;;;;;;;;;24.40;99.90;;;;;;5087854;28;19959;-68
2023/06/15 09:47:32;;;;;;;;;;;24.50;99.90;;;;;;5087579;28;19928;-68
2023/06/15 09:49:59;;;;;;;;;;;24.60;99.90;;;;;;5090293;28;19924;-68
2023/06/15 09:52:26;;;;;;;;;;;24.60;99.90;;;;;;5081876;28;19924;-68
2023/06/15 09:54:53;;;;;;;;;;;24.70;99.90;;;;;;5090264;28;20386;-68
2023/06/15 09:57:20;;;;;;;;;;;24.90;99.90;;;;;;5079723;28;19925;-67
2023/06/15 09:59:48;;;;;;;;;;;25.00;99.90;;;;;;5077336;28;19924;-69
2023/06/15 10:02:17;;;;;;;;;;;24.90;99.90;;;;;;5079844;28;19931;-69
2023/06/15 10:04:46;;;;;;;;;;;25.10;99.90;;;;;;5078847;28;19932;-68
2023/06/15 10:07:13;;;;;;;;;;;25.20;99.90;;;;;;5084410;28;19925;-68
2023/06/15 10:09:42;;;;;;;;;;;25.20;99.90;;;;;;5084391;28;19925;-68
2023/06/15 10:12:12;;;;;;;;;;;25.30;99.90;;;;;;5088185;28;20027;-68
2023/06/15 10:14:42;;;;;;;;;;;25.20;99.90;;;;;;5073748;28;19939;-68
2023/06/15 10:17:11;;;;;;;;;;;25.30;99.90;;;;;;5090423;28;19924;-68
2023/06/15 10:19:43;;;;;;;;;;;25.40;99.90;;;;;;5070301;28;20422;-68
2023/06/15 10:22:12;;;;;;;;;;;25.60;99.90;;;;;;5075587;28;19924;-68
2023/06/15 10:24:39;;;;;;;;;;;25.70;99.90;;;;;;5083297;28;19937;-68
2023/06/15 10:27:06;;;;;;;;;;;25.90;99.90;;;;;;5077884;28;19940;-69
2023/06/15 10:29:36;;;;;;;;;;;26.10;99.90;;;;;;5073767;28;19931;-68
2023/06/15 10:32:08;;;;;;;;;;;26.20;99.90;;;;;;5081717;28;20012;-68
2023/06/15 10:34:39;;;;;;;;;;;26.30;99.90;;;;;;5071116;28;19931;-67
2023/06/15 10:37:09;;;;;;;;;;;26.40;99.90;;;;;;5070383;28;19930;-68
2023/06/15 10:39:37;;;;;;;;;;;26.50;99.90;;;;;;5074856;28;19932;-67
2023/06/15 10:42:07;;;;;;;;;;;26.70;99.90;;;;;;5070558;28;19970;-69
2023/06/15 10:44:34;;;;;;;;;;;26.90;99.90;;;;;;5086684;28;20019;-68
2023/06/15 10:47:08;;;;;;;;;;;27.10;99.90;;;;;;5075657;28;19924;-68
2023/06/15 10:49:34;;;;;;;;;;;27.20;99.90;;;;;;5078641;28;20544;-68
2023/06/15 10:52:04;;;;;;;;;;;27.20;99.90;;;;;;5086891;22;20685;-71
2023/06/15 10:54:30;;;;;;;;;;;27.40;99.90;;;;;;5052590;28;19928;-72
2023/06/15 10:56:58;;;;;;;;;;;27.50;99.90;;;;;;5036489;28;20023;-71
2023/06/15 10:59:37;;;;;;;;;;;27.60;99.90;;;;;;5042171;28;19931;-72
2023/06/15 11:02:24;;;;;;;;;;;27.80;99.90;;;;;;5039129;28;19928;-72
2023/06/15 11:04:51;;;;;;;;;;;28.00;99.90;;;;;;5036309;28;20027;-71
2023/06/15 11:07:27;;;;;;;;;;;28.00;99.90;;;;;;5038589;28;19925;-72
2023/06/15 11:09:56;;;;;;;;;;;28.30;99.90;;;;;;5033544;28;19932;-71
2023/06/15 11:12:33;;;;;;;;;;;28.70;99.90;;;;;;5033989;28;19951;-72
2023/06/15 11:15:00;;;;;;;;;;;28.90;99.90;;;;;;5038453;28;19925;-71
2023/06/15 11:17:28;;;;;;;;;;;28.60;99.90;;;;;;5035899;28;19929;-72
2023/06/15 11:19:55;;;;;;;;;;;28.80;99.90;;;;;;5040623;28;19924;-72
2023/06/15 11:22:25;;;;;;;;;;;28.70;99.90;;;;;;5037584;28;19931;-72
2023/06/15 11:24:54;;;;;;;;;;;28.60;99.90;;;;;;5035983;28;19925;-72
2023/06/15 11:27:22;;;;;;;;;;;29.00;99.90;;;;;;5035590;28;19928;-72
2023/06/15 11:29:55;;;;;;;;;;;29.20;99.90;;;;;;5031808;28;19929;-72
2023/06/15 11:32:25;;;;;;;;;;;29.10;99.90;;;;;;5035690;28;20403;-72
2023/06/15 11:34:56;;;;;;;;;;;29.10;99.90;;;;;;5029690;28;19975;-72
2023/06/15 11:37:27;;;;;;;;;;;29.40;99.90;;;;;;5035644;28;19928;-72
2023/06/15 11:39:53;;;;;;;;;;;30.00;99.90;;;;;;5044157;28;19928;-72
2023/06/15 11:42:22;;;;;;;;;;;30.70;99.90;;;;;;5035530;28;19925;-72
2023/06/15 11:44:49;;;;;;;;;;;31.60;99.90;;;;;;5060349;28;19925;-73
2023/06/15 11:47:16;;;;;;;;;;;32.20;99.90;;;;;;5038416;28;19924;-72
2023/06/15 11:49:45;;;;;;;;;;;32.80;99.90;;;;;;5047984;28;19986;-72
2023/06/15 11:52:12;;;;;;;;;;;33.70;99.90;;;;;;5035339;28;19932;-72
2023/06/15 11:54:40;;;;;;;;;;;34.50;99.90;;;;;;5037373;28;19924;-72
2023/06/15 11:57:07;;;;;;;;;;;35.50;99.90;;;;;;5041261;28;19924;-72
2023/06/15 11:59:35;;;;;;;;;;;;;;;;;;5035243;28;19929;-72
2023/06/15 12:02:04;;;;;;;;;;;36.80;98.10;;;;;;5038677;28;20415;-72
2023/06/15 12:04:31;;;;;;;;;;;36.50;97.60;;;;;;5034405;28;20009;-72
2023/06/15 12:07:00;;;;;;;;;;;36.40;97.00;;;;;;5034973;28;19925;-72
2023/06/15 12:09:27;;;;;;;;;;;36.60;96.30;;;;;;5034935;28;19931;-72
2023/06/15 12:11:56;;;;;;;;;;;37.00;96.20;;;;;;5038901;28;19936;-72
2023/06/15 12:14:25;;;;;;;;;;;36.00;96.00;;;;;;5034928;28;19976;-72
2023/06/15 12:16:53;;;;;;;;;;;36.60;95.70;;;;;;5040086;28;19924;-72
2023/06/15 12:19:20;;;;;;;;;;;36.60;95.70;;;;;;5035097;28;19932;-72
2023/06/15 12:21:47;;;;;;;;;;;36.70;95.50;;;;;;5034440;28;19924;-72
2023/06/15 12:24:15;;;;;;;;;;;37.10;95.60;;;;;;5034923;28;19928;-72
2023/06/15 12:26:42;;;;;;;;;;;36.10;94.60;;;;;;5035982;28;19931;-72
2023/06/15 12:29:17;;;;;;;;;;;36.10;95.70;;;;;;5034700;28;20023;-73
2023/06/15 12:31:47;;;;;;;;;;;36.60;94.60;;;;;;5034088;28;20084;-73
2023/06/15 12:34:14;;;;;;;;;;;37.10;94.10;;;;;;5043145;28;19947;-72
2023/06/15 12:36:41;;;;;;;;;;;36.80;94.10;;;;;;5035854;28;19933;-72
2023/06/15 12:39:08;;;;;;;;;;;37.30;94.60;;;;;;5034842;28;19947;-72
2023/06/15 12:41:38;;;;;;;;;;;37.30;93.80;;;;;;5039460;28;19925;-72
2023/06/15 12:44:05;;;;;;;;;;;37.90;94.00;;;;;;5035569;28;19933;-72
2023/06/15 12:46:36;;;;;;;;;;;38.10;94.10;;;;;;5034992;28;19933;-72
2023/06/15 12:49:04;;;;;;;;;;;38.00;93.80;;;;;;5034950;28;19936;-72
2023/06/15 12:51:30;;;;;;;;;;;38.10;93.50;;;;;;5036853;28;19924;-72
2023/06/15 12:53:57;;;;;;;;;;;38.00;93.40;;;;;;5034091;28;19932;-72
2023/06/15 12:56:26;;;;;;;;;;;38.40;94.10;;;;;;5053721;28;19935;-72
2023/06/15 12:58:53;;;;;;;;;;;38.50;93.50;;;;;;5049891;28;19924;-72
2023/06/15 13:01:20;;;;;;;;;;;38.90;93.40;;;;;;5034052;28;19955;-72
2023/06/15 13:03:49;;;;;;;;;;;38.00;93.00;;;;;;5034148;28;20011;-72
2023/06/15 13:06:15;;;;;;;;;;;37.80;93.30;;;;;;5034392;28;19928;-72
2023/06/15 13:08:43;;;;;;;;;;;37.00;92.10;;;;;;5033984;28;19987;-72
2023/06/15 13:11:09;;;;;;;;;;;36.90;92.10;;;;;;5037722;28;19925;-73
2023/06/15 13:13:36;;;;;;;;;;;38.10;91.90;;;;;;5050182;28;19924;-72
2023/06/15 13:16:03;;;;;;;;;;;38.20;92.90;;;;;;5029958;28;20023;-72
2023/06/15 13:18:30;;;;;;;;;;;37.70;93.00;;;;;;5037554;28;19929;-73
2023/06/15 13:20:58;;;;;;;;;;;37.80;93.30;;;;;;5041395;28;19925;-73
2023/06/15 13:23:25;;;;;;;;;;;37.40;93.30;;;;;;5033525;28;19983;-72
2023/06/15 13:25:52;;;;;;;;;;;37.20;93.00;;;;;;5033446;28;19925;-72
2023/06/15 13:28:19;;;;;;;;;;;37.50;92.80;;;;;;5051224;28;20015;-73
2023/06/15 13:30:46;;;;;;;;;;;37.40;92.80;;;;;;5039394;28;19971;-73
2023/06/15 13:33:12;;;;;;;;;;;37.60;92.70;;;;;;5033527;28;19982;-72
2023/06/15 13:35:40;;;;;;;;;;;37.80;92.50;;;;;;5033303;28;19932;-73
2023/06/15 13:38:08;;;;;;;;;;;37.40;92.70;;;;;;5040835;28;19924;-73
2023/06/15 13:40:35;;;;;;;;;;;37.30;93.20;;;;;;5033345;28;19936;-73
2023/06/15 13:43:02;;;;;;;;;;;36.90;92.60;;;;;;5040350;28;19932;-73
2023/06/15 13:45:29;;;;;;;;;;;36.70;92.30;;;;;;5033708;28;19936;-73
2023/06/15 13:47:55;;;;;;;;;;;37.00;92.50;;;;;;5033473;28;20338;-73
2023/06/15 13:50:22;;;;;;;;;;;37.40;92.60;;;;;;5033486;28;20039;-75
2023/06/15 13:52:49;;;;;;;;;;;37.40;92.10;;;;;;5033168;28;19928;-73
2023/06/15 13:55:18;;;;;;;;;;;37.40;92.30;;;;;;5032694;28;20351;-73
2023/06/15 13:57:45;;;;;;;;;;;38.40;92.20;;;;;;5035246;28;19928;-72
2023/06/15 14:00:12;;;;;;;;;;;38.40;92.00;;;;;;5033175;28;19978;-73
2023/06/15 14:02:40;;;;;;;;;;;38.30;91.80;;;;;;5050882;28;19929;-72
2023/06/15 14:05:07;;;;;;;;;;;37.90;91.50;;;;;;5032847;28;19925;-73
2023/06/15 14:07:37;;;;;;;;;;;37.90;91.60;;;;;;5033217;28;19971;-72
2023/06/15 14:10:04;;;;;;;;;;;37.30;91.50;;;;;;5034460;28;20027;-72
2023/06/15 14:12:32;;;;;;;;;;;36.90;92.00;;;;;;5039719;28;19924;-73
2023/06/15 14:14:59;;;;;;;;;;;36.40;92.30;;;;;;5028201;28;20400;-73
2023/06/15 14:17:26;;;;;;;;;;;35.70;92.30;;;;;;5039438;28;19971;-73
2023/06/15 14:19:53;;;;;;;;;;;35.40;92.50;;;;;;5032670;28;20367;-73
2023/06/15 14:22:19;;;;;;;;;;;35.80;93.30;;;;;;5037605;28;19925;-73
2023/06/15 14:24:46;;;;;;;;;;;36.40;92.30;;;;;;5032592;28;19932;-73